Time;durP1;ratioP1;P1;durP2;ratioP2;P2;SDS_P1;SDS_P2;PMS_P1;PMS_P2;Temp;Humidity;BMP_temperature;BMP_pressure;BME280_temperature;BME280_humidity;BME280_pressure;Samples;Min_cycle;Max_cycle;Signal;HPM_P1;HPM_P2
2022/12/04 00:00:06;;;;;;;0.30;0.30;;;;;;;7.44;100.00;100786.16;337955;29;2897;-73
2022/12/04 00:00:17;;;;;;;0.00;0.00;;;;;;;7.46;100.00;100780.94;335656;29;1297;-73
2022/12/04 00:00:27;;;;;;;0.00;0.00;;;;;;;7.47;100.00;100777.44;335485;29;1357;-73
2022/12/04 00:00:38;;;;;;;0.00;0.00;;;;;;;7.48;100.00;100780.03;336442;29;1799;-73
2022/12/04 00:00:48;;;;;;;0.00;0.00;;;;;;;7.50;100.00;100787.84;331759;29;1058;-73
2022/12/04 00:01:08;;;;;;;0.00;0.00;;;;;;;7.49;100.00;100784.38;334146;29;1961;-73
2022/12/04 00:01:20;;;;;;;0.00;0.00;;;;;;;7.51;100.00;100787.81;333153;29;1143;-74
2022/12/04 00:01:30;;;;;;;0.00;0.00;;;;;;;7.52;100.00;100784.34;334373;29;918;-74
2022/12/04 00:01:41;;;;;;;0.10;0.10;;;;;;;7.53;100.00;100783.47;333025;29;1047;-74
2022/12/04 00:01:51;;;;;;;0.10;0.10;;;;;;;7.54;100.00;100785.19;331366;29;1465;-74
2022/12/04 00:02:01;;;;;;;0.10;0.10;;;;;;;7.56;100.00;100786.03;330763;29;926;-74
2022/12/04 00:02:12;;;;;;;0.00;0.00;;;;;;;7.56;100.00;100783.44;331105;29;1821;-73
2022/12/04 00:02:22;;;;;;;0.00;0.00;;;;;;;7.56;100.00;100783.44;328057;29;2070;-73
2022/12/04 00:02:33;;;;;;;0.00;0.00;;;;;;;7.57;100.00;100781.69;330667;29;1324;-73
2022/12/04 00:02:43;;;;;;;0.00;0.00;;;;;;;7.54;100.00;100785.19;329963;29;2024;-73
2022/12/04 00:02:53;;;;;;;0.00;0.00;;;;;;;7.52;100.00;100776.53;325579;30;2348;-73
2022/12/04 00:03:04;;;;;;;0.00;0.00;;;;;;;7.51;100.00;100780.00;320949;30;1229;-73
2022/12/04 00:03:14;;;;;;;0.00;0.00;;;;;;;7.49;100.00;100781.78;323967;30;1631;-73
2022/12/04 00:03:25;;;;;;;0.00;0.00;;;;;;;7.48;100.00;100784.38;324977;30;863;-73
2022/12/04 00:03:35;;;;;;;0.00;0.00;;;;;;;7.48;100.00;100781.78;327011;30;892;-75
2022/12/04 00:03:46;;;;;;;0.00;0.00;;;;;;;7.47;100.00;100783.53;323344;30;933;-74
2022/12/04 00:03:58;;;;;;;0.00;0.00;;;;;;;7.47;100.00;100783.53;319801;30;2503;-74
2022/12/04 00:04:08;;;;;;;0.00;0.00;;;;;;;7.48;100.00;100785.25;317331;30;2031;-73
2022/12/04 00:04:19;;;;;;;0.00;0.00;;;;;;;7.50;100.00;100780.88;317346;31;1406;-74
2022/12/04 00:04:29;;;;;;;0.00;0.00;;;;;;;7.52;100.00;100781.75;322181;30;2456;-74
2022/12/04 00:04:39;;;;;;;0.00;0.00;;;;;;;7.53;100.00;100780.88;321448;30;2592;-74
2022/12/04 00:04:50;;;;;;;0.00;0.00;;;;;;;7.55;100.00;100784.31;322197;30;945;-74
2022/12/04 00:05:02;;;;;;;0.00;0.00;;;;;;;7.55;100.00;100776.50;320769;30;2662;-74
2022/12/04 00:05:12;;;;;;;0.00;0.00;;;;;;;7.56;100.00;100779.97;319887;30;2788;-74
2022/12/04 00:05:22;;;;;;;0.00;0.00;;;;;;;7.54;100.00;100779.97;318328;31;1851;-74
2022/12/04 00:05:33;;;;;;;0.00;0.00;;;;;;;7.53;100.00;100787.81;317588;31;910;-74
2022/12/04 00:05:43;;;;;;;0.00;0.00;;;;;;;7.51;100.00;100782.63;318001;30;1698;-74
2022/12/04 00:06:07;;;;;;;0.10;0.10;;;;;;;7.49;100.00;100781.78;316887;30;2003;-74
2022/12/04 00:06:18;;;;;;;0.00;0.00;;;;;;;7.48;100.00;100773.97;316357;31;1239;-74
2022/12/04 00:06:28;;;;;;;0.00;0.00;;;;;;;7.47;100.00;100777.44;314576;31;2930;-74
2022/12/04 00:06:39;;;;;;;0.00;0.00;;;;;;;7.47;100.00;100778.31;315440;30;3526;-74
2022/12/04 00:06:49;;;;;;;0.00;0.00;;;;;;;7.44;100.00;100778.34;314171;31;924;-74
2022/12/04 00:07:00;;;;;;;0.00;0.00;;;;;;;7.43;100.00;100776.63;312635;31;3403;-74
2022/12/04 00:07:10;;;;;;;0.00;0.00;;;;;;;7.43;100.00;100774.00;313459;31;3749;-74
2022/12/04 00:07:20;;;;;;;0.10;0.10;;;;;;;7.42;100.00;100779.22;312862;31;1199;-74
2022/12/04 00:07:31;;;;;;;0.10;0.10;;;;;;;7.43;100.00;100776.63;309893;31;1758;-74
2022/12/04 00:07:41;;;;;;;0.10;0.10;;;;;;;7.44;100.00;100783.56;308675;31;2463;-74
2022/12/04 00:07:52;;;;;;;0.00;0.00;;;;;;;7.45;100.00;100772.25;307378;31;2368;-74
2022/12/04 00:08:02;;;;;;;0.00;0.00;;;;;;;7.46;100.00;100773.13;307535;32;1284;-74
2022/12/04 00:08:13;;;;;;;0.00;0.00;;;;;;;7.49;100.00;100779.16;308082;31;2978;-74
2022/12/04 00:08:23;;;;;;;0.10;0.10;;;;;;;7.52;100.00;100781.75;306466;31;4178;-74
2022/12/04 00:08:33;;;;;;;0.10;0.10;;;;;;;7.54;100.00;100779.97;305030;32;5048;-74
2022/12/04 00:08:44;;;;;;;0.10;0.10;;;;;;;7.51;100.00;100780.00;305286;32;5087;-74
2022/12/04 00:08:54;;;;;;;0.38;0.38;;;;;;;7.47;100.00;100778.31;304523;32;4365;-74
2022/12/04 00:09:05;;;;;;;0.33;0.33;;;;;;;7.49;100.00;100779.16;304665;32;2951;-74
2022/12/04 00:09:15;;;;;;;0.40;0.40;;;;;;;7.47;100.00;100782.66;299052;32;4709;-74
2022/12/04 00:09:26;;;;;;;0.10;0.10;;;;;;;7.47;100.00;100777.44;299034;32;4723;-74
2022/12/04 00:09:36;;;;;;;0.10;0.10;;;;;;;7.49;100.00;100776.56;299857;32;4826;-74
2022/12/04 00:09:47;;;;;;;0.00;0.00;;;;;;;7.45;100.00;100774.84;303258;32;1211;-74
2022/12/04 00:09:57;;;;;;;0.00;0.00;;;;;;;7.45;100.00;100779.19;301913;32;3466;-74
2022/12/04 00:10:08;;;;;;;0.00;0.00;;;;;;;7.45;100.00;100774.84;301323;32;3496;-74
2022/12/04 00:10:18;;;;;;;0.00;0.00;;;;;;;7.47;100.00;100777.44;303199;32;1566;-74
2022/12/04 00:10:29;;;;;;;0.00;0.00;;;;;;;7.48;100.00;100780.03;304279;32;4188;-74
2022/12/04 00:10:42;;;;;;;0.10;0.10;;;;;;;7.49;100.00;100784.38;300174;32;4585;-74
2022/12/04 00:10:53;;;;;;;0.10;0.10;;;;;;;7.46;100.00;100781.78;297199;32;5641;-74
2022/12/04 00:11:04;;;;;;;0.00;0.00;;;;;;;7.44;100.00;100777.47;297074;33;1221;-74
2022/12/04 00:11:16;;;;;;;0.10;0.10;;;;;;;7.44;100.00;100773.13;298528;32;6214;-74
2022/12/04 00:11:29;;;;;;;0.10;0.10;;;;;;;7.45;100.00;100777.47;297368;32;6488;-74
2022/12/04 00:11:39;;;;;;;0.03;0.03;;;;;;;7.47;100.00;100778.31;297265;32;6490;-74
2022/12/04 00:11:49;;;;;;;0.00;0.00;;;;;;;7.49;100.00;100780.91;300138;32;912;-74
2022/12/04 00:12:00;;;;;;;0.10;0.10;;;;;;;7.50;100.00;100778.28;298093;33;6530;-74
2022/12/04 00:12:10;;;;;;;0.10;0.10;;;;;;;7.50;100.00;100783.50;295184;33;4784;-74
2022/12/04 00:12:20;;;;;;;0.10;0.10;;;;;;;7.53;100.00;100787.81;293161;33;1711;-74
2022/12/04 00:12:31;;;;;;;0.00;0.00;;;;;;;7.48;100.00;100785.25;289308;34;2078;-74
2022/12/04 00:12:41;;;;;;;0.10;0.10;;;;;;;7.48;100.00;100776.56;285871;34;6792;-74
2022/12/04 00:12:52;;;;;;;0.10;0.10;;;;;;;7.48;100.00;100785.25;285291;34;6885;-74
2022/12/04 00:13:02;;;;;;;0.10;0.10;;;;;;;7.48;100.00;100784.38;285537;34;1417;-74
2022/12/04 00:13:12;;;;;;;0.10;0.10;;;;;;;7.42;100.00;100785.31;285465;34;7133;-74
2022/12/04 00:13:23;;;;;;;0.10;0.10;;;;;;;7.40;100.00;100776.63;284888;34;8930;-74
2022/12/04 00:13:33;;;;;;;0.10;0.10;;;;;;;7.37;100.00;100781.00;286684;34;1248;-74
2022/12/04 00:13:44;;;;;;;0.00;0.00;;;;;;;7.36;100.00;100784.53;284459;34;8811;-74
2022/12/04 00:13:54;;;;;;;0.00;0.00;;;;;;;7.37;100.00;100786.22;282357;34;8845;-74
2022/12/04 00:14:05;;;;;;;0.00;0.00;;;;;;;7.34;100.00;100784.53;283882;34;885;-74
2022/12/04 00:14:15;;;;;;;0.00;0.00;;;;;;;7.31;100.00;100787.16;283954;34;8800;-74
2022/12/04 00:14:26;;;;;;;0.00;0.00;;;;;;;7.31;100.00;100789.78;282227;34;6104;-74
2022/12/04 00:14:36;;;;;;;0.00;0.00;;;;;;;7.29;100.00;100787.19;279905;34;10088;-74
2022/12/04 00:14:46;;;;;;;0.00;0.00;;;;;;;7.29;100.00;100788.91;281916;35;925;-74
2022/12/04 00:14:57;;;;;;;0.00;0.00;;;;;;;7.29;100.00;100781.97;278452;35;9919;-74
2022/12/04 00:15:08;;;;;;;0.00;0.00;;;;;;;7.31;100.00;100784.56;278080;34;8771;-74
2022/12/04 00:15:19;;;;;;;0.00;0.00;;;;;;;7.33;100.00;100780.22;282863;35;945;-74
2022/12/04 00:17:46;;;;;;;0.25;0.25;;;;;;;7.43;100.00;100787.03;2490956;27;20490;-72
2022/12/04 00:17:57;;;;;;;0.52;0.52;;;;;;;7.42;100.00;100780.09;353282;27;1279;-73
2022/12/04 00:18:07;;;;;;;0.90;0.90;;;;;;;7.42;100.00;100787.03;351952;28;960;-73
2022/12/04 00:18:17;;;;;;;0.60;0.60;;;;;;;7.40;100.00;100776.63;349375;28;1375;-73
2022/12/04 00:18:28;;;;;;;0.40;0.40;;;;;;;7.37;100.00;100787.09;348078;28;1270;-73
2022/12/04 00:18:38;;;;;;;0.10;0.10;;;;;;;7.34;100.00;100785.41;347701;28;923;-73
2022/12/04 00:18:49;;;;;;;0.10;0.10;;;;;;;7.36;100.00;100784.53;348886;28;1303;-73
2022/12/04 00:18:59;;;;;;;0.10;0.10;;;;;;;7.36;100.00;100784.53;348614;28;2120;-73
2022/12/04 00:19:10;;;;;;;0.10;0.10;;;;;;;7.38;100.00;100785.34;348925;28;1263;-73
2022/12/04 00:19:20;;;;;;;0.05;0.05;;;;;;;7.39;100.00;100785.34;349061;28;2006;-73
2022/12/04 00:19:30;;;;;;;0.10;0.10;;;;;;;7.39;100.00;100785.34;348808;28;1414;-73
2022/12/04 00:19:41;;;;;;;0.10;0.10;;;;;;;7.39;100.00;100780.13;347446;28;1290;-73
2022/12/04 00:19:51;;;;;;;0.10;0.10;;;;;;;7.41;100.00;100790.53;347636;28;946;-73
2022/12/04 00:20:02;;;;;;;0.10;0.10;;;;;;;7.40;100.00;100784.44;347893;28;977;-73
2022/12/04 00:20:12;;;;;;;0.10;0.10;;;;;;;7.41;100.00;100791.38;347695;28;887;-73
2022/12/04 00:20:23;;;;;;;0.10;0.10;;;;;;;7.43;100.00;100792.25;348377;28;1208;-73
2022/12/04 00:20:34;;;;;;;0.00;0.00;;;;;;;7.41;100.00;100794.00;347597;28;952;-73
2022/12/04 00:20:44;;;;;;;0.00;0.00;;;;;;;7.39;100.00;100782.72;346105;28;1379;-73
2022/12/04 00:20:55;;;;;;;0.00;0.00;;;;;;;7.38;100.00;100787.94;346232;28;919;-73
2022/12/04 00:21:06;;;;;;;0.00;0.00;;;;;;;7.36;100.00;100789.72;346041;28;1565;-74
2022/12/04 00:21:17;;;;;;;0.00;0.00;;;;;;;7.34;100.00;100787.13;346357;28;1068;-73
2022/12/04 00:21:27;;;;;;;0.00;0.00;;;;;;;7.34;100.00;100785.41;342254;28;984;-73
2022/12/04 00:21:38;;;;;;;0.00;0.00;;;;;;;7.34;100.00;100788.00;342743;28;1595;-73
2022/12/04 00:21:49;;;;;;;0.00;0.00;;;;;;;7.33;100.00;100790.63;344910;28;1228;-73
2022/12/04 00:21:59;;;;;;;0.00;0.00;;;;;;;7.34;100.00;100792.34;343593;28;814;-73
2022/12/04 00:22:10;;;;;;;0.00;0.00;;;;;;;7.35;100.00;100794.06;343106;28;1975;-73
2022/12/04 00:22:20;;;;;;;0.00;0.00;;;;;;;7.32;100.00;100784.56;345307;28;977;-73
2022/12/04 00:22:30;;;;;;;0.00;0.00;;;;;;;7.30;100.00;100791.50;346209;28;1721;-73
2022/12/04 00:22:41;;;;;;;0.00;0.00;;;;;;;7.32;100.00;100786.28;346271;28;1516;-73
2022/12/04 00:22:51;;;;;;;0.07;0.07;;;;;;;7.31;100.00;100797.59;344709;28;1899;-72
2022/12/04 00:23:02;;;;;;;0.10;0.10;;;;;;;7.27;100.00;100795.88;346273;28;996;-72
2022/12/04 00:23:12;;;;;;;0.10;0.10;;;;;;;7.23;100.00;100796.78;344912;28;961;-72
2022/12/04 00:23:23;;;;;;;0.10;0.10;;;;;;;7.21;100.00;100788.13;342628;28;1277;-72
2022/12/04 00:23:33;;;;;;;0.10;0.10;;;;;;;7.18;100.00;100794.22;343506;28;1276;-73
2022/12/04 00:23:44;;;;;;;0.10;0.10;;;;;;;7.15;100.00;100791.63;342305;28;1031;-73
2022/12/04 00:23:54;;;;;;;0.10;0.10;;;;;;;7.14;100.00;100789.03;343012;28;1988;-73
2022/12/04 00:24:05;;;;;;;0.10;0.10;;;;;;;7.14;100.00;100795.09;343041;28;1103;-73
2022/12/04 00:24:15;;;;;;;0.10;0.10;;;;;;;7.14;100.00;100799.44;340975;29;880;-73
2022/12/04 00:24:26;;;;;;;0.15;0.15;;;;;;;7.14;100.00;100799.44;339909;29;1291;-73
2022/12/04 00:24:37;;;;;;;0.20;0.20;;;;;;;7.16;100.00;100797.69;340200;29;1281;-72
2022/12/04 00:24:47;;;;;;;0.27;0.27;;;;;;;7.17;100.00;100789.00;340952;29;947;-73
2022/12/04 00:24:57;;;;;;;0.27;0.27;;;;;;;7.15;100.00;100795.97;340782;29;1438;-73
2022/12/04 00:25:08;;;;;;;0.20;0.20;;;;;;;7.13;100.00;100793.38;341664;28;870;-73
2022/12/04 00:25:18;;;;;;;0.20;0.20;;;;;;;7.15;100.00;100795.97;342443;28;1193;-73
2022/12/04 00:25:29;;;;;;;0.00;0.00;;;;;;;7.15;100.00;100795.97;344915;28;1440;-73
2022/12/04 00:25:39;;;;;;;0.00;0.00;;;;;;;7.14;100.00;100795.09;344473;28;1288;-73
2022/12/04 00:25:52;;;;;;;0.07;0.07;;;;;;;7.14;100.00;100796.84;342391;28;1341;-72
2022/12/04 00:26:07;;;;;;;0.08;0.08;;;;;;;7.14;100.00;100794.25;341052;28;1466;-72
2022/12/04 00:26:22;;;;;;;0.00;0.00;;;;;;;7.16;100.00;100789.88;339325;29;1561;-72
2022/12/04 00:26:33;;;;;;;0.08;0.08;;;;;;;7.19;100.00;100792.47;333999;29;1917;-72
2022/12/04 00:26:43;;;;;;;0.00;0.00;;;;;;;7.20;100.00;100795.06;333149;29;846;-73
2022/12/04 00:26:54;;;;;;;0.00;0.00;;;;;;;7.21;100.00;100795.94;332960;29;4949;-72
2022/12/04 00:27:04;;;;;;;0.00;0.00;;;;;;;7.20;100.00;100796.81;334154;29;5246;-72
2022/12/04 00:27:15;;;;;;;0.40;0.40;;;;;;;7.18;100.00;100790.75;334341;29;1188;-72
2022/12/04 00:27:25;;;;;;;0.50;0.50;;;;;;;7.15;100.00;100791.63;337408;29;2292;-72
2022/12/04 00:27:35;;;;;;;0.60;0.60;;;;;;;7.13;100.00;100792.50;337254;29;5589;-72
2022/12/04 00:27:46;;;;;;;0.30;0.30;;;;;;;7.12;100.00;100789.03;336040;29;992;-72
2022/12/04 00:27:56;;;;;;;0.27;0.27;;;;;;;7.12;100.00;100793.38;335502;29;1918;-73
2022/12/04 00:28:06;;;;;;;0.20;0.20;;;;;;;7.13;100.00;100789.91;331525;29;1918;-72
2022/12/04 00:28:17;;;;;;;0.10;0.10;;;;;;;7.09;100.00;100786.47;331572;29;1362;-73
2022/12/04 00:28:28;;;;;;;0.10;0.10;;;;;;;7.09;100.00;100790.81;328219;30;872;-73
2022/12/04 00:28:38;;;;;;;0.10;0.10;;;;;;;7.08;100.00;100789.09;329795;29;1785;-72
2022/12/04 00:28:48;;;;;;;0.10;0.10;;;;;;;7.08;100.00;100789.94;330775;29;2336;-72
2022/12/04 00:28:59;;;;;;;0.10;0.10;;;;;;;7.10;100.00;100792.53;330333;29;1853;-72
2022/12/04 00:29:09;;;;;;;0.10;0.10;;;;;;;7.12;100.00;100791.66;335710;29;1327;-72
2022/12/04 00:29:20;;;;;;;0.10;0.10;;;;;;;7.13;100.00;100788.16;335873;29;1117;-72
2022/12/04 00:29:30;;;;;;;0.20;0.20;;;;;;;7.16;100.00;100792.50;334411;29;862;-72
2022/12/04 00:29:40;;;;;;;0.20;0.20;;;;;;;7.18;100.00;100790.75;330411;29;1873;-72
2022/12/04 00:29:51;;;;;;;0.17;0.17;;;;;;;7.18;100.00;100794.22;328964;29;2065;-73
2022/12/04 00:30:01;;;;;;;0.10;0.10;;;;;;;7.19;100.00;100787.25;328438;30;894;-73
2022/12/04 00:30:12;;;;;;;0.10;0.10;;;;;;;7.21;100.00;100788.97;327336;29;2206;-73
2022/12/04 00:30:23;;;;;;;0.30;0.30;;;;;;;7.23;100.00;100794.19;327011;30;2421;-74
2022/12/04 00:30:33;;;;;;;0.30;0.30;;;;;;;7.24;100.00;100794.16;326134;30;3279;-73
2022/12/04 00:30:44;;;;;;;0.28;0.28;;;;;;;7.25;100.00;100795.03;323426;30;940;-73
2022/12/04 00:30:54;;;;;;;0.10;0.10;;;;;;;7.25;100.00;100790.69;320541;30;2560;-73
2022/12/04 00:31:09;;;;;;;0.10;0.10;;;;;;;7.24;100.00;100785.50;320875;30;1873;-73
2022/12/04 00:31:21;;;;;;;0.10;0.10;;;;;;;7.23;100.00;100789.84;321377;30;2048;-73
2022/12/04 00:31:32;;;;;;;0.00;0.00;;;;;;;7.24;100.00;100791.56;320924;30;1173;-73
2022/12/04 00:31:42;;;;;;;0.10;0.10;;;;;;;7.26;100.00;100788.94;317449;31;1714;-73
2022/12/04 00:31:53;;;;;;;0.10;0.10;;;;;;;7.26;100.00;100794.16;317435;31;2821;-73
2022/12/04 00:32:03;;;;;;;0.10;0.10;;;;;;;7.27;100.00;100790.66;317039;30;3098;-73
2022/12/04 00:32:13;;;;;;;0.10;0.10;;;;;;;7.26;100.00;100791.53;317405;31;1310;-73
2022/12/04 00:32:24;;;;;;;0.40;0.40;;;;;;;7.23;100.00;100788.97;316354;30;3192;-73
2022/12/04 00:32:34;;;;;;;0.40;0.40;;;;;;;7.21;100.00;100790.72;312947;31;3240;-73
2022/12/04 00:32:45;;;;;;;0.28;0.28;;;;;;;7.21;100.00;100793.31;309679;31;898;-73
2022/12/04 00:32:55;;;;;;;0.10;0.10;;;;;;;7.21;100.00;100788.97;308922;31;3393;-73
2022/12/04 00:33:05;;;;;;;0.10;0.10;;;;;;;7.23;100.00;100789.84;309400;31;3257;-73
2022/12/04 00:33:16;;;;;;;0.30;0.30;;;;;;;7.23;100.00;100783.75;308491;32;1276;-73
2022/12/04 00:33:26;;;;;;;0.30;0.30;;;;;;;7.23;100.00;100792.44;307720;32;2393;-72
2022/12/04 00:33:37;;;;;;;0.33;0.33;;;;;;;7.26;100.00;100794.16;307026;31;2451;-72
2022/12/04 00:33:47;;;;;;;0.20;0.20;;;;;;;7.28;100.00;100792.41;305863;31;3025;-73
2022/12/04 00:33:58;;;;;;;0.23;0.23;;;;;;;7.27;100.00;100791.53;305702;32;2107;-73
2022/12/04 00:34:08;;;;;;;0.20;0.20;;;;;;;7.25;100.00;100792.41;303524;32;3667;-73
2022/12/04 00:34:21;;;;;;;0.20;0.20;;;;;;;7.26;100.00;100791.53;302465;31;4271;-73
2022/12/04 00:34:31;;;;;;;0.25;0.25;;;;;;;7.28;100.00;100793.25;308498;32;1273;-73
2022/12/04 00:34:41;;;;;;;0.30;0.30;;;;;;;7.28;100.00;100797.59;309651;31;4541;-74
2022/12/04 00:34:52;;;;;;;0.22;0.22;;;;;;;7.27;100.00;100786.31;307612;32;5185;-74
2022/12/04 00:35:02;;;;;;;0.40;0.40;;;;;;;7.26;100.00;100788.94;306456;31;4336;-74
2022/12/04 00:35:13;;;;;;;0.50;0.50;;;;;;;7.27;100.00;100785.47;303477;32;1524;-74
2022/12/04 00:35:24;;;;;;;0.47;0.47;;;;;;;7.28;100.00;100782.84;304602;32;4686;-73
2022/12/04 00:35:34;;;;;;;0.08;0.08;;;;;;;7.30;100.00;100796.72;303151;32;3284;-73
2022/12/04 00:35:45;;;;;;;0.10;0.10;;;;;;;7.31;100.00;100792.38;301232;32;885;-74
2022/12/04 00:35:57;;;;;;;0.25;0.25;;;;;;;7.32;100.00;100783.69;297937;32;3416;-74
2022/12/04 00:36:09;;;;;;;0.28;0.28;;;;;;;7.34;100.00;100792.34;294273;32;4929;-73
2022/12/04 00:36:20;;;;;;;0.20;0.20;;;;;;;7.36;100.00;100792.34;296436;32;5881;-73
2022/12/04 00:36:31;;;;;;;0.28;0.28;;;;;;;7.36;100.00;100785.38;298638;33;1973;-73
2022/12/04 00:36:41;;;;;;;0.20;0.20;;;;;;;7.32;100.00;100794.09;298755;32;6130;-73
2022/12/04 00:36:51;;;;;;;0.33;0.33;;;;;;;7.27;100.00;100795.88;296104;32;5838;-74
2022/12/04 00:37:02;;;;;;;0.20;0.20;;;;;;;7.26;100.00;100795.00;295048;33;1252;-74
2022/12/04 00:37:12;;;;;;;0.20;0.20;;;;;;;7.23;100.00;100784.63;293207;33;863;-74
2022/12/04 00:37:23;;;;;;;0.10;0.10;;;;;;;7.19;100.00;100793.34;288469;33;4697;-73
2022/12/04 00:37:33;;;;;;;0.10;0.10;;;;;;;7.20;100.00;100786.38;287531;33;6261;-73
2022/12/04 00:37:44;;;;;;;0.00;0.00;;;;;;;7.20;100.00;100789.00;290400;34;860;-73
2022/12/04 00:37:54;;;;;;;0.10;0.10;;;;;;;7.21;100.00;100786.38;288229;33;4175;-73
2022/12/04 00:38:04;;;;;;;0.00;0.00;;;;;;;7.21;100.00;100785.50;286759;34;5305;-73
2022/12/04 00:38:15;;;;;;;0.10;0.10;;;;;;;7.21;100.00;100786.38;285638;34;881;-73
2022/12/04 00:38:25;;;;;;;0.00;0.00;;;;;;;7.23;100.00;100789.84;286207;34;6258;-73
2022/12/04 00:38:36;;;;;;;0.10;0.10;;;;;;;7.25;100.00;100788.09;281679;34;7564;-73
2022/12/04 00:38:46;;;;;;;0.00;0.00;;;;;;;7.21;100.00;100788.97;281103;35;1236;-73
2022/12/04 00:38:58;;;;;;;0.00;0.00;;;;;;;7.21;100.00;100795.94;282821;34;8448;-73
2022/12/04 00:39:08;;;;;;;0.00;0.00;;;;;;;7.21;100.00;100790.72;283708;34;7798;-73
2022/12/04 00:39:19;;;;;;;0.00;0.00;;;;;;;7.21;100.00;100790.72;279652;35;8873;-73
2022/12/04 00:39:29;;;;;;;0.00;0.00;;;;;;;7.23;100.00;100788.97;275696;35;1505;-73
2022/12/04 00:39:40;;;;;;;0.00;0.00;;;;;;;7.21;100.00;100796.78;278790;35;7334;-73
2022/12/04 00:39:50;;;;;;;0.00;0.00;;;;;;;7.17;100.00;100795.09;279019;35;8602;-73
2022/12/04 00:41:55;;;;;;;0.26;0.26;;;;;;;7.25;100.00;100787.22;2502441;27;20268;-73
2022/12/04 00:42:05;;;;;;;0.10;0.10;;;;;;;7.21;100.00;100785.50;354596;27;875;-73
2022/12/04 00:42:16;;;;;;;0.10;0.10;;;;;;;7.19;100.00;100792.47;351827;28;1322;-73
2022/12/04 00:42:26;;;;;;;0.10;0.10;;;;;;;7.18;100.00;100783.78;350411;28;906;-73
2022/12/04 00:42:37;;;;;;;0.00;0.00;;;;;;;7.19;100.00;100787.25;348903;28;1580;-73
2022/12/04 00:42:47;;;;;;;0.00;0.00;;;;;;;7.19;100.00;100784.66;347683;28;1582;-73
2022/12/04 00:42:57;;;;;;;0.10;0.10;;;;;;;7.19;100.00;100792.47;348921;28;1234;-73
2022/12/04 00:43:08;;;;;;;0.10;0.10;;;;;;;7.20;100.00;100795.06;349026;28;1228;-73
2022/12/04 00:43:18;;;;;;;0.10;0.10;;;;;;;7.19;100.00;100787.25;350044;28;1213;-73
2022/12/04 00:43:29;;;;;;;0.05;0.05;;;;;;;7.18;100.00;100795.94;347740;28;1059;-73
2022/12/04 00:43:40;;;;;;;0.10;0.10;;;;;;;7.17;100.00;100789.88;349373;28;1427;-73
2022/12/04 00:43:51;;;;;;;0.00;0.00;;;;;;;7.15;100.00;100791.63;348855;28;1841;-75
2022/12/04 00:44:01;;;;;;;0.03;0.03;;;;;;;7.14;100.00;100792.50;350306;28;932;-75
2022/12/04 00:44:12;;;;;;;0.00;0.00;;;;;;;7.16;100.00;100789.88;348971;28;1303;-75
2022/12/04 00:44:22;;;;;;;0.03;0.03;;;;;;;7.18;100.00;100790.75;348879;28;1455;-75
2022/12/04 00:44:32;;;;;;;0.00;0.00;;;;;;;7.18;100.00;100786.41;348122;28;1421;-75
2022/12/04 00:44:43;;;;;;;0.00;0.00;;;;;;;7.22;100.00;100795.06;348907;28;1284;-74
2022/12/04 00:44:53;;;;;;;0.00;0.00;;;;;;;7.22;100.00;100788.09;348996;28;820;-74
2022/12/04 00:45:04;;;;;;;0.00;0.00;;;;;;;7.24;100.00;100786.34;350427;28;872;-74
2022/12/04 00:45:14;;;;;;;0.00;0.00;;;;;;;7.26;100.00;100794.16;346549;28;4879;-74
2022/12/04 00:45:25;;;;;;;0.00;0.00;;;;;;;7.26;100.00;100791.53;349337;28;4866;-74
2022/12/04 00:45:35;;;;;;;0.00;0.00;;;;;;;7.25;100.00;100792.41;351641;28;956;-74
2022/12/04 00:45:45;;;;;;;0.10;0.10;;;;;;;7.24;100.00;100790.69;349994;28;1987;-74
2022/12/04 00:45:56;;;;;;;0.00;0.00;;;;;;;7.23;100.00;100791.56;350163;28;5243;-74
2022/12/04 00:46:06;;;;;;;0.00;0.00;;;;;;;7.19;100.00;100792.47;351421;28;1059;-74
2022/12/04 00:46:17;;;;;;;0.00;0.00;;;;;;;7.16;100.00;100784.69;348788;28;1113;-74
2022/12/04 00:46:27;;;;;;;0.03;0.03;;;;;;;7.17;100.00;100789.00;347624;28;896;-74
2022/12/04 00:46:38;;;;;;;0.00;0.00;;;;;;;7.13;100.00;100784.72;346260;28;915;-74
2022/12/04 00:46:48;;;;;;;0.10;0.10;;;;;;;7.11;100.00;100783.84;346874;28;909;-74
2022/12/04 00:46:58;;;;;;;0.03;0.03;;;;;;;7.12;100.00;100785.59;346025;28;1955;-74
2022/12/04 00:47:09;;;;;;;0.10;0.10;;;;;;;7.14;100.00;100791.63;346306;28;868;-74
2022/12/04 00:47:19;;;;;;;0.10;0.10;;;;;;;7.14;100.00;100789.03;346997;28;876;-74
2022/12/04 00:47:30;;;;;;;0.10;0.10;;;;;;;7.13;100.00;100787.31;347589;28;1977;-74
2022/12/04 00:47:40;;;;;;;0.05;0.05;;;;;;;7.16;100.00;100792.50;346327;28;804;-74
2022/12/04 00:47:50;;;;;;;0.00;0.00;;;;;;;7.18;100.00;100786.41;344812;28;1081;-73
2022/12/04 00:48:01;;;;;;;0.00;0.00;;;;;;;7.20;100.00;100789.00;347768;28;1614;-73
2022/12/04 00:48:11;;;;;;;0.00;0.00;;;;;;;7.21;100.00;100788.13;346192;28;865;-73
2022/12/04 00:48:22;;;;;;;0.00;0.00;;;;;;;7.23;100.00;100794.19;344671;28;1397;-73
2022/12/04 00:48:32;;;;;;;0.00;0.00;;;;;;;7.23;100.00;100786.38;343355;28;1297;-73
2022/12/04 00:48:43;;;;;;;0.00;0.00;;;;;;;7.24;100.00;100785.50;343428;28;1744;-73
2022/12/04 00:48:54;;;;;;;0.00;0.00;;;;;;;7.26;100.00;100787.19;345491;28;1467;-73
2022/12/04 00:49:04;;;;;;;0.00;0.00;;;;;;;7.28;100.00;100788.06;345148;28;883;-73
2022/12/04 00:49:14;;;;;;;0.00;0.00;;;;;;;7.30;100.00;100785.44;342233;28;988;-73
2022/12/04 00:49:25;;;;;;;0.00;0.00;;;;;;;7.30;100.00;100790.66;342237;28;1406;-73
2022/12/04 00:49:36;;;;;;;0.00;0.00;;;;;;;7.31;100.00;100780.22;342914;28;1007;-74
2022/12/04 00:49:47;;;;;;;0.03;0.03;;;;;;;7.33;100.00;100790.63;340781;28;1466;-74
2022/12/04 00:49:57;;;;;;;0.00;0.00;;;;;;;7.34;100.00;100787.13;339153;29;1339;-74
2022/12/04 00:50:08;;;;;;;0.10;0.10;;;;;;;7.35;100.00;100788.88;343901;28;1485;-74
2022/12/04 00:50:18;;;;;;;0.10;0.10;;;;;;;7.34;100.00;100784.53;341702;28;1603;-74
2022/12/04 00:50:29;;;;;;;0.10;0.10;;;;;;;7.33;100.00;100788.88;342126;28;1898;-74
2022/12/04 00:50:39;;;;;;;0.10;0.10;;;;;;;7.33;100.00;100795.81;335633;29;1247;-74
2022/12/04 00:50:50;;;;;;;0.00;0.00;;;;;;;7.35;100.00;100796.69;338685;29;1333;-74
2022/12/04 00:51:02;;;;;;;0.00;0.00;;;;;;;7.30;100.00;100793.25;339192;29;1069;-74
2022/12/04 00:51:15;;;;;;;0.00;0.00;;;;;;;7.27;100.00;100790.66;338311;29;875;-74
2022/12/04 00:51:25;;;;;;;0.00;0.00;;;;;;;7.23;100.00;100795.03;338191;29;1138;-74
2022/12/04 00:51:36;;;;;;;0.00;0.00;;;;;;;7.19;100.00;100782.91;331677;29;1342;-74
2022/12/04 00:51:46;;;;;;;0.00;0.00;;;;;;;7.18;100.00;100785.53;330009;29;1493;-74
2022/12/04 00:51:57;;;;;;;0.00;0.00;;;;;;;7.16;100.00;100784.69;331145;29;1636;-74
2022/12/04 00:52:07;;;;;;;0.00;0.00;;;;;;;7.14;100.00;100786.44;335685;29;2315;-74
2022/12/04 00:52:17;;;;;;;0.00;0.00;;;;;;;7.15;100.00;100790.75;333337;29;1907;-74
2022/12/04 00:52:28;;;;;;;0.03;0.03;;;;;;;7.16;100.00;100787.28;334383;29;975;-74
2022/12/04 00:52:38;;;;;;;0.00;0.00;;;;;;;7.19;100.00;100792.47;334094;29;2116;-74
2022/12/04 00:52:49;;;;;;;0.00;0.00;;;;;;;7.20;100.00;100789.00;331549;29;2389;-74
2022/12/04 00:52:59;;;;;;;0.00;0.00;;;;;;;7.21;100.00;100786.38;331803;29;1717;-74
2022/12/04 00:53:10;;;;;;;0.10;0.10;;;;;;;7.22;100.00;100787.25;335576;29;1304;-74
2022/12/04 00:53:20;;;;;;;0.00;0.00;;;;;;;7.22;100.00;100792.44;335533;29;1315;-74
2022/12/04 00:53:31;;;;;;;0.00;0.00;;;;;;;7.23;100.00;100794.19;332749;29;1359;-74
2022/12/04 00:53:41;;;;;;;0.00;0.00;;;;;;;7.22;100.00;100788.09;333171;29;978;-74
2022/12/04 00:53:52;;;;;;;0.00;0.00;;;;;;;7.23;100.00;100788.97;331552;29;1970;-74
2022/12/04 00:54:02;;;;;;;0.00;0.00;;;;;;;7.23;100.00;100781.16;328932;29;1928;-73
2022/12/04 00:54:13;;;;;;;0.00;0.00;;;;;;;7.22;100.00;100789.84;328493;30;888;-73
2022/12/04 00:54:23;;;;;;;0.00;0.00;;;;;;;7.23;100.00;100787.22;327367;29;3936;-73
2022/12/04 00:54:33;;;;;;;0.00;0.00;;;;;;;7.21;100.00;100785.50;325493;29;5205;-73
2022/12/04 00:54:44;;;;;;;0.07;0.07;;;;;;;7.15;100.00;100786.44;326590;30;2764;-74
2022/12/04 00:54:54;;;;;;;0.20;0.20;;;;;;;7.15;100.00;100783.81;326680;30;1953;-74
2022/12/04 00:55:05;;;;;;;0.30;0.30;;;;;;;7.16;100.00;100792.50;321955;30;3360;-74
2022/12/04 00:55:15;;;;;;;0.15;0.15;;;;;;;7.13;100.00;100782.09;320865;30;1939;-74